createdAt,value
2017-04-20T00:02:30.997Z,0
2017-04-20T00:12:43.039Z,0
2017-04-20T00:22:55.045Z,0
2017-04-20T00:33:07.076Z,0
2017-04-20T00:43:19.059Z,0
2017-04-20T00:53:31.091Z,0
2017-04-20T01:03:43.120Z,0
2017-04-20T01:13:55.194Z,0
2017-04-20T01:24:07.301Z,0
2017-04-20T01:34:19.431Z,0
2017-04-20T01:44:31.607Z,0
2017-04-20T01:54:43.793Z,0
2017-04-20T02:04:55.905Z,0
2017-04-20T02:15:08.040Z,0
2017-04-20T02:25:20.201Z,0
2017-04-20T02:35:32.303Z,0
2017-04-20T02:45:44.432Z,0
2017-04-20T02:55:56.665Z,0
2017-04-20T03:06:08.925Z,0
2017-04-20T03:16:21.189Z,0
2017-04-20T03:26:33.497Z,0
2017-04-20T03:36:45.757Z,0
2017-04-20T03:46:58.107Z,4
2017-04-20T03:57:10.426Z,12
2017-04-20T04:07:22.771Z,64
2017-04-20T04:17:35.067Z,236
2017-04-20T04:27:47.365Z,636
2017-04-20T04:37:59.627Z,1344
2017-04-20T04:48:11.777Z,2116
2017-04-20T04:58:23.877Z,3088
2017-04-20T05:08:35.829Z,4452
2017-04-20T05:18:47.569Z,5508
2017-04-20T05:28:59.097Z,6484
2017-04-20T05:39:10.488Z,7736
2017-04-20T05:49:21.704Z,9356
2017-04-20T05:59:32.777Z,12104
2017-04-20T06:09:43.658Z,16576
2017-04-20T06:19:54.281Z,19296
2017-04-20T06:30:04.822Z,23040
2017-04-20T06:40:15.161Z,27520
2017-04-20T06:50:25.259Z,26528
2017-04-20T07:00:35.185Z,39040
2017-04-20T07:10:45.053Z,41952
2017-04-20T07:20:54.759Z,49696
2017-04-20T07:31:04.339Z,49984
2017-04-20T07:41:13.854Z,55392
2017-04-20T07:51:23.309Z,56864
2017-04-20T08:01:32.685Z,69760
2017-04-20T08:11:41.970Z,72704
2017-04-20T08:21:51.237Z,69664
2017-04-20T08:32:00.492Z,82880
2017-04-20T08:42:09.690Z,85984
2017-04-20T08:52:18.856Z,83584
2017-04-20T09:02:28.038Z,92096
2017-04-20T09:12:37.085Z,90112
2017-04-20T09:22:46.012Z,100384
2017-04-20T09:32:54.896Z,94912
2017-04-20T09:43:03.749Z,92544
2017-04-20T09:53:12.607Z,104256
2017-04-20T10:03:21.661Z,102624
2017-04-20T10:13:30.642Z,113888
2017-04-20T10:23:39.531Z,108672
2017-04-20T10:33:48.415Z,113856
2017-04-20T10:43:57.325Z,108704
2017-04-20T10:54:06.279Z,113440
2017-04-20T11:04:15.218Z,120448
2017-04-20T11:14:24.103Z,120128
2017-04-20T11:24:32.955Z,124352
2017-04-20T11:34:41.875Z,128992
2017-04-20T11:44:50.838Z,123456
2017-04-20T11:54:59.726Z,117344
2017-04-20T12:05:08.721Z,120352
2017-04-20T12:15:17.605Z,115968
2017-04-20T12:25:26.480Z,114944
2017-04-20T12:35:35.209Z,109184
2017-04-20T12:45:43.941Z,106944
2017-04-20T12:55:52.750Z,106272
2017-04-20T13:06:01.524Z,105952
2017-04-20T13:16:10.212Z,96128
2017-04-20T13:26:18.989Z,97248
2017-04-20T13:36:27.722Z,104256
2017-04-20T13:46:36.460Z,93376
2017-04-20T13:56:45.247Z,91584
2017-04-20T14:06:54.043Z,90752
2017-04-20T14:17:02.792Z,87264
2017-04-20T14:27:11.532Z,85056
2017-04-20T14:37:20.184Z,79680
2017-04-20T14:47:28.816Z,81408
2017-04-20T14:57:37.478Z,75616
2017-04-20T15:07:46.257Z,61184
2017-04-20T15:17:54.889Z,59552
2017-04-20T15:28:03.596Z,30464
2017-04-20T15:38:12.632Z,24832
2017-04-20T15:48:21.847Z,25024
2017-04-20T15:58:31.218Z,23456
2017-04-20T16:08:40.709Z,20800
2017-04-20T16:18:50.290Z,16352
2017-04-20T16:29:00.038Z,15160
2017-04-20T16:39:09.809Z,14332
2017-04-20T16:49:19.664Z,11336
2017-04-20T16:59:29.574Z,9852
2017-04-20T17:09:39.465Z,12436
2017-04-20T17:19:49.319Z,8552
2017-04-20T17:29:59.156Z,6336
2017-04-20T17:40:09.069Z,3980
2017-04-20T17:50:19.262Z,3616
2017-04-20T18:00:29.625Z,2536
2017-04-20T18:10:40.094Z,1740
2017-04-20T18:20:50.630Z,984
2017-04-20T18:31:01.363Z,548
2017-04-20T18:41:12.123Z,208
2017-04-20T18:51:22.911Z,56
2017-04-20T19:01:33.690Z,12
2017-04-20T19:11:44.453Z,4
2017-04-20T19:21:55.245Z,0
2017-04-20T19:32:06.128Z,0
2017-04-20T19:42:17.086Z,0
2017-04-20T19:52:28.134Z,0
2017-04-20T20:02:39.056Z,0
2017-04-20T20:12:50.055Z,0
2017-04-20T20:23:01.048Z,0
2017-04-20T20:33:12.042Z,0
2017-04-20T20:43:23.132Z,0
2017-04-20T20:53:34.230Z,0
2017-04-20T21:03:45.312Z,0
2017-04-20T21:13:56.387Z,0
2017-04-20T21:24:07.495Z,0
2017-04-20T21:34:18.571Z,0
2017-04-20T21:44:29.605Z,0
2017-04-20T21:54:40.682Z,0
2017-04-20T22:04:51.756Z,0
2017-04-20T22:15:02.826Z,0
2017-04-20T22:25:13.957Z,0
2017-04-20T22:35:25.117Z,0
2017-04-20T22:45:36.311Z,0
2017-04-20T22:55:47.411Z,0
2017-04-20T23:05:58.512Z,0
2017-04-20T23:16:09.655Z,0
2017-04-20T23:26:20.723Z,0
2017-04-20T23:36:31.806Z,0
2017-04-20T23:46:42.883Z,0
2017-04-20T23:56:53.967Z,0
